sensor_id;sensor_type;location;lat;lon;timestamp;P1;durP1;ratioP1;P2;durP2;ratioP2
1715;SDS011;855;48.824;9.220;2024-03-02T00:01:23;25.90;;;12.67;;
1715;SDS011;855;48.824;9.220;2024-03-02T00:03:50;28.53;;;12.23;;
1715;SDS011;855;48.824;9.220;2024-03-02T00:06:18;24.80;;;10.40;;
1715;SDS011;855;48.824;9.220;2024-03-02T00:08:48;31.67;;;10.53;;
1715;SDS011;855;48.824;9.220;2024-03-02T00:11:15;24.20;;;11.07;;
1715;SDS011;855;48.824;9.220;2024-03-02T00:13:43;27.63;;;10.90;;
1715;SDS011;855;48.824;9.220;2024-03-02T00:16:11;26.73;;;11.23;;
1715;SDS011;855;48.824;9.220;2024-03-02T00:18:38;29.37;;;13.27;;
1715;SDS011;855;48.824;9.220;2024-03-02T00:21:05;32.40;;;12.03;;
1715;SDS011;855;48.824;9.220;2024-03-02T00:23:34;21.40;;;9.93;;
1715;SDS011;855;48.824;9.220;2024-03-02T00:26:03;27.10;;;11.23;;
1715;SDS011;855;48.824;9.220;2024-03-02T00:28:31;25.50;;;10.13;;
1715;SDS011;855;48.824;9.220;2024-03-02T00:31:01;19.53;;;10.33;;
1715;SDS011;855;48.824;9.220;2024-03-02T00:33:33;26.70;;;10.37;;
1715;SDS011;855;48.824;9.220;2024-03-02T00:36:01;25.13;;;10.33;;
1715;SDS011;855;48.824;9.220;2024-03-02T00:38:28;21.47;;;9.47;;
1715;SDS011;855;48.824;9.220;2024-03-02T00:40:56;25.23;;;10.93;;
1715;SDS011;855;48.824;9.220;2024-03-02T00:46:19;22.00;;;10.30;;
1715;SDS011;855;48.824;9.220;2024-03-02T00:48:56;18.00;;;10.17;;
1715;SDS011;855;48.824;9.220;2024-03-02T00:51:24;18.97;;;9.07;;
1715;SDS011;855;48.824;9.220;2024-03-02T00:53:52;18.13;;;9.23;;
1715;SDS011;855;48.824;9.220;2024-03-02T00:56:21;24.00;;;10.23;;
1715;SDS011;855;48.824;9.220;2024-03-02T00:58:50;24.50;;;10.27;;
1715;SDS011;855;48.824;9.220;2024-03-02T01:01:18;20.30;;;10.90;;
1715;SDS011;855;48.824;9.220;2024-03-02T01:03:45;22.00;;;10.00;;
1715;SDS011;855;48.824;9.220;2024-03-02T01:06:11;23.97;;;9.43;;
1715;SDS011;855;48.824;9.220;2024-03-02T01:08:38;16.23;;;8.43;;
1715;SDS011;855;48.824;9.220;2024-03-02T01:11:05;17.60;;;8.77;;
1715;SDS011;855;48.824;9.220;2024-03-02T01:13:32;23.50;;;9.60;;
1715;SDS011;855;48.824;9.220;2024-03-02T01:16:00;22.37;;;9.40;;
1715;SDS011;855;48.824;9.220;2024-03-02T01:18:28;19.70;;;9.03;;
1715;SDS011;855;48.824;9.220;2024-03-02T01:20:55;22.67;;;9.30;;
1715;SDS011;855;48.824;9.220;2024-03-02T01:23:22;33.87;;;12.03;;
1715;SDS011;855;48.824;9.220;2024-03-02T01:25:50;19.53;;;8.53;;
1715;SDS011;855;48.824;9.220;2024-03-02T01:28:17;19.60;;;9.57;;
1715;SDS011;855;48.824;9.220;2024-03-02T01:30:45;31.97;;;10.90;;
1715;SDS011;855;48.824;9.220;2024-03-02T01:33:14;21.27;;;10.47;;
1715;SDS011;855;48.824;9.220;2024-03-02T01:35:41;25.13;;;9.40;;
1715;SDS011;855;48.824;9.220;2024-03-02T01:38:07;29.93;;;11.37;;
1715;SDS011;855;48.824;9.220;2024-03-02T01:40:35;25.47;;;11.63;;
1715;SDS011;855;48.824;9.220;2024-03-02T01:43:02;29.17;;;9.53;;
1715;SDS011;855;48.824;9.220;2024-03-02T01:45:30;25.67;;;8.97;;
1715;SDS011;855;48.824;9.220;2024-03-02T01:47:57;25.73;;;8.87;;
1715;SDS011;855;48.824;9.220;2024-03-02T01:50:26;19.30;;;9.90;;
1715;SDS011;855;48.824;9.220;2024-03-02T01:52:54;28.90;;;11.50;;
1715;SDS011;855;48.824;9.220;2024-03-02T01:55:21;28.60;;;11.00;;
1715;SDS011;855;48.824;9.220;2024-03-02T01:57:48;25.60;;;9.93;;
1715;SDS011;855;48.824;9.220;2024-03-02T02:00:17;24.27;;;10.33;;
1715;SDS011;855;48.824;9.220;2024-03-02T02:02:44;21.77;;;9.23;;
1715;SDS011;855;48.824;9.220;2024-03-02T02:05:11;23.30;;;10.80;;
1715;SDS011;855;48.824;9.220;2024-03-02T02:07:41;22.87;;;9.83;;
1715;SDS011;855;48.824;9.220;2024-03-02T02:10:08;21.93;;;10.10;;
1715;SDS011;855;48.824;9.220;2024-03-02T02:12:36;23.30;;;10.93;;
1715;SDS011;855;48.824;9.220;2024-03-02T02:15:03;24.70;;;11.03;;
1715;SDS011;855;48.824;9.220;2024-03-02T02:17:47;21.23;;;9.00;;
1715;SDS011;855;48.824;9.220;2024-03-02T02:20:14;19.40;;;8.10;;
1715;SDS011;855;48.824;9.220;2024-03-02T02:22:42;20.13;;;9.33;;
1715;SDS011;855;48.824;9.220;2024-03-02T02:25:20;20.60;;;7.90;;
1715;SDS011;855;48.824;9.220;2024-03-02T02:27:47;22.50;;;10.17;;
1715;SDS011;855;48.824;9.220;2024-03-02T02:30:13;24.43;;;10.07;;
1715;SDS011;855;48.824;9.220;2024-03-02T02:32:45;26.97;;;9.80;;
1715;SDS011;855;48.824;9.220;2024-03-02T02:35:11;23.27;;;11.27;;
1715;SDS011;855;48.824;9.220;2024-03-02T02:37:38;31.50;;;12.27;;
1715;SDS011;855;48.824;9.220;2024-03-02T02:40:07;23.67;;;9.83;;
1715;SDS011;855;48.824;9.220;2024-03-02T02:42:34;19.13;;;7.70;;
1715;SDS011;855;48.824;9.220;2024-03-02T02:45:01;27.97;;;10.37;;
1715;SDS011;855;48.824;9.220;2024-03-02T02:47:28;21.27;;;8.90;;
1715;SDS011;855;48.824;9.220;2024-03-02T02:49:55;24.73;;;9.73;;
1715;SDS011;855;48.824;9.220;2024-03-02T02:52:22;26.13;;;9.80;;
1715;SDS011;855;48.824;9.220;2024-03-02T02:54:49;16.80;;;8.87;;
1715;SDS011;855;48.824;9.220;2024-03-02T02:57:17;19.90;;;8.53;;
1715;SDS011;855;48.824;9.220;2024-03-02T02:59:44;24.83;;;9.17;;
1715;SDS011;855;48.824;9.220;2024-03-02T03:02:11;22.00;;;9.03;;
1715;SDS011;855;48.824;9.220;2024-03-02T03:04:39;19.40;;;9.13;;
1715;SDS011;855;48.824;9.220;2024-03-02T03:07:06;23.43;;;10.17;;
1715;SDS011;855;48.824;9.220;2024-03-02T03:09:32;19.60;;;9.50;;
1715;SDS011;855;48.824;9.220;2024-03-02T03:11:59;25.80;;;9.17;;
1715;SDS011;855;48.824;9.220;2024-03-02T03:14:27;19.27;;;9.23;;
1715;SDS011;855;48.824;9.220;2024-03-02T03:16:54;23.30;;;10.07;;
1715;SDS011;855;48.824;9.220;2024-03-02T03:19:21;18.83;;;8.77;;
1715;SDS011;855;48.824;9.220;2024-03-02T03:21:48;14.87;;;7.60;;
1715;SDS011;855;48.824;9.220;2024-03-02T03:24:15;19.63;;;8.50;;
1715;SDS011;855;48.824;9.220;2024-03-02T03:26:41;25.70;;;8.63;;
1715;SDS011;855;48.824;9.220;2024-03-02T03:29:08;28.90;;;10.30;;
1715;SDS011;855;48.824;9.220;2024-03-02T03:31:36;20.30;;;9.53;;
1715;SDS011;855;48.824;9.220;2024-03-02T03:34:03;20.27;;;8.47;;
1715;SDS011;855;48.824;9.220;2024-03-02T03:36:30;22.50;;;10.70;;
1715;SDS011;855;48.824;9.220;2024-03-02T03:38:57;21.50;;;8.70;;
1715;SDS011;855;48.824;9.220;2024-03-02T03:41:24;27.83;;;10.00;;
1715;SDS011;855;48.824;9.220;2024-03-02T03:43:50;27.90;;;10.80;;
1715;SDS011;855;48.824;9.220;2024-03-02T03:46:17;21.90;;;9.37;;
1715;SDS011;855;48.824;9.220;2024-03-02T03:48:45;23.63;;;11.17;;
1715;SDS011;855;48.824;9.220;2024-03-02T03:51:12;28.80;;;10.57;;
1715;SDS011;855;48.824;9.220;2024-03-02T03:53:39;20.83;;;8.27;;
1715;SDS011;855;48.824;9.220;2024-03-02T03:56:06;22.07;;;9.23;;
1715;SDS011;855;48.824;9.220;2024-03-02T03:58:33;24.17;;;9.70;;
1715;SDS011;855;48.824;9.220;2024-03-02T04:00:59;28.27;;;10.47;;
1715;SDS011;855;48.824;9.220;2024-03-02T04:03:26;25.20;;;10.20;;
1715;SDS011;855;48.824;9.220;2024-03-02T04:05:54;24.57;;;9.83;;
1715;SDS011;855;48.824;9.220;2024-03-02T04:08:21;18.90;;;8.53;;
1715;SDS011;855;48.824;9.220;2024-03-02T04:10:48;28.60;;;10.00;;
1715;SDS011;855;48.824;9.220;2024-03-02T04:13:15;22.60;;;9.00;;
1715;SDS011;855;48.824;9.220;2024-03-02T04:15:41;24.17;;;10.27;;
1715;SDS011;855;48.824;9.220;2024-03-02T04:18:08;20.50;;;8.10;;
1715;SDS011;855;48.824;9.220;2024-03-02T04:20:35;24.77;;;9.60;;
1715;SDS011;855;48.824;9.220;2024-03-02T04:23:03;19.83;;;8.40;;
1715;SDS011;855;48.824;9.220;2024-03-02T04:25:30;24.80;;;10.37;;
1715;SDS011;855;48.824;9.220;2024-03-02T04:27:57;22.97;;;9.03;;
1715;SDS011;855;48.824;9.220;2024-03-02T04:30:24;22.90;;;9.87;;
1715;SDS011;855;48.824;9.220;2024-03-02T04:32:51;24.60;;;8.17;;
1715;SDS011;855;48.824;9.220;2024-03-02T04:35:17;29.93;;;10.50;;
1715;SDS011;855;48.824;9.220;2024-03-02T04:37:44;23.77;;;10.27;;
1715;SDS011;855;48.824;9.220;2024-03-02T04:40:13;29.33;;;10.70;;
1715;SDS011;855;48.824;9.220;2024-03-02T04:42:39;21.90;;;9.57;;
1715;SDS011;855;48.824;9.220;2024-03-02T04:45:07;23.47;;;10.00;;
1715;SDS011;855;48.824;9.220;2024-03-02T04:47:34;25.90;;;10.00;;
1715;SDS011;855;48.824;9.220;2024-03-02T04:50:01;23.70;;;9.17;;
1715;SDS011;855;48.824;9.220;2024-03-02T04:52:28;20.07;;;8.70;;
1715;SDS011;855;48.824;9.220;2024-03-02T04:54:54;19.73;;;9.80;;
1715;SDS011;855;48.824;9.220;2024-03-02T04:57:50;26.50;;;10.23;;
1715;SDS011;855;48.824;9.220;2024-03-02T05:00:19;24.67;;;9.83;;
1715;SDS011;855;48.824;9.220;2024-03-02T05:02:46;24.13;;;10.17;;
1715;SDS011;855;48.824;9.220;2024-03-02T05:05:13;20.23;;;8.43;;
1715;SDS011;855;48.824;9.220;2024-03-02T05:07:41;30.20;;;9.10;;
1715;SDS011;855;48.824;9.220;2024-03-02T05:10:09;23.90;;;9.77;;
1715;SDS011;855;48.824;9.220;2024-03-02T05:12:36;21.53;;;9.83;;
1715;SDS011;855;48.824;9.220;2024-03-02T05:15:23;17.97;;;8.20;;
1715;SDS011;855;48.824;9.220;2024-03-02T05:17:49;31.57;;;10.50;;
1715;SDS011;855;48.824;9.220;2024-03-02T05:20:17;21.77;;;9.17;;
1715;SDS011;855;48.824;9.220;2024-03-02T05:22:44;20.43;;;9.30;;
1715;SDS011;855;48.824;9.220;2024-03-02T05:25:12;26.63;;;9.73;;
1715;SDS011;855;48.824;9.220;2024-03-02T05:27:39;20.47;;;10.27;;
1715;SDS011;855;48.824;9.220;2024-03-02T05:30:06;19.37;;;10.20;;
1715;SDS011;855;48.824;9.220;2024-03-02T05:32:35;25.57;;;10.00;;
1715;SDS011;855;48.824;9.220;2024-03-02T05:35:02;22.70;;;10.47;;
1715;SDS011;855;48.824;9.220;2024-03-02T05:37:30;26.10;;;10.03;;
1715;SDS011;855;48.824;9.220;2024-03-02T05:39:56;29.57;;;11.23;;
1715;SDS011;855;48.824;9.220;2024-03-02T05:42:24;19.10;;;9.60;;
1715;SDS011;855;48.824;9.220;2024-03-02T05:44:52;30.73;;;10.87;;
1715;SDS011;855;48.824;9.220;2024-03-02T05:47:19;28.10;;;10.50;;
1715;SDS011;855;48.824;9.220;2024-03-02T05:49:47;32.37;;;9.80;;
1715;SDS011;855;48.824;9.220;2024-03-02T05:52:14;27.20;;;9.00;;
1715;SDS011;855;48.824;9.220;2024-03-02T05:54:41;26.50;;;10.32;;
1715;SDS011;855;48.824;9.220;2024-03-02T05:57:07;20.17;;;8.97;;
1715;SDS011;855;48.824;9.220;2024-03-02T05:59:57;20.80;;;7.83;;
1715;SDS011;855;48.824;9.220;2024-03-02T06:02:24;19.17;;;8.77;;
1715;SDS011;855;48.824;9.220;2024-03-02T06:04:52;25.77;;;10.63;;
1715;SDS011;855;48.824;9.220;2024-03-02T06:07:20;24.90;;;10.60;;
1715;SDS011;855;48.824;9.220;2024-03-02T06:09:47;26.93;;;9.50;;
1715;SDS011;855;48.824;9.220;2024-03-02T06:12:15;21.93;;;10.20;;
1715;SDS011;855;48.824;9.220;2024-03-02T06:14:43;19.63;;;9.43;;
1715;SDS011;855;48.824;9.220;2024-03-02T06:17:09;25.50;;;10.10;;
1715;SDS011;855;48.824;9.220;2024-03-02T06:19:36;28.67;;;10.87;;
1715;SDS011;855;48.824;9.220;2024-03-02T06:22:04;23.93;;;10.37;;
1715;SDS011;855;48.824;9.220;2024-03-02T06:24:35;39.83;;;11.73;;
1715;SDS011;855;48.824;9.220;2024-03-02T06:27:02;23.47;;;9.60;;
1715;SDS011;855;48.824;9.220;2024-03-02T06:29:29;23.37;;;10.50;;
1715;SDS011;855;48.824;9.220;2024-03-02T06:31:58;27.00;;;9.80;;
1715;SDS011;855;48.824;9.220;2024-03-02T06:34:25;21.00;;;10.20;;
1715;SDS011;855;48.824;9.220;2024-03-02T06:36:52;27.53;;;10.20;;
1715;SDS011;855;48.824;9.220;2024-03-02T06:39:20;32.00;;;11.37;;
1715;SDS011;855;48.824;9.220;2024-03-02T06:41:46;30.73;;;10.23;;
1715;SDS011;855;48.824;9.220;2024-03-02T06:44:13;29.30;;;11.27;;
1715;SDS011;855;48.824;9.220;2024-03-02T06:46:40;37.93;;;11.77;;
1715;SDS011;855;48.824;9.220;2024-03-02T06:49:07;25.83;;;10.50;;
1715;SDS011;855;48.824;9.220;2024-03-02T06:51:35;24.87;;;9.47;;
1715;SDS011;855;48.824;9.220;2024-03-02T06:54:02;26.43;;;11.30;;
1715;SDS011;855;48.824;9.220;2024-03-02T06:56:30;29.80;;;11.17;;
1715;SDS011;855;48.824;9.220;2024-03-02T06:58:58;29.10;;;11.90;;
1715;SDS011;855;48.824;9.220;2024-03-02T07:01:24;25.87;;;11.63;;
1715;SDS011;855;48.824;9.220;2024-03-02T07:03:53;37.80;;;11.80;;
1715;SDS011;855;48.824;9.220;2024-03-02T07:06:20;24.27;;;10.13;;
1715;SDS011;855;48.824;9.220;2024-03-02T07:08:46;29.00;;;9.80;;
1715;SDS011;855;48.824;9.220;2024-03-02T07:11:13;26.50;;;12.37;;
1715;SDS011;855;48.824;9.220;2024-03-02T07:13:41;26.27;;;10.27;;
1715;SDS011;855;48.824;9.220;2024-03-02T07:16:08;27.03;;;12.50;;
1715;SDS011;855;48.824;9.220;2024-03-02T07:18:55;26.00;;;11.40;;
1715;SDS011;855;48.824;9.220;2024-03-02T07:21:22;30.83;;;12.23;;
1715;SDS011;855;48.824;9.220;2024-03-02T07:23:49;29.67;;;11.87;;
1715;SDS011;855;48.824;9.220;2024-03-02T07:26:16;34.47;;;12.07;;
1715;SDS011;855;48.824;9.220;2024-03-02T07:28:45;35.43;;;14.00;;
1715;SDS011;855;48.824;9.220;2024-03-02T07:31:13;32.17;;;13.90;;
1715;SDS011;855;48.824;9.220;2024-03-02T07:33:40;31.97;;;11.40;;
1715;SDS011;855;48.824;9.220;2024-03-02T07:36:07;39.73;;;13.60;;
1715;SDS011;855;48.824;9.220;2024-03-02T07:38:34;30.67;;;13.13;;
1715;SDS011;855;48.824;9.220;2024-03-02T07:41:01;28.73;;;12.07;;
1715;SDS011;855;48.824;9.220;2024-03-02T07:43:29;32.93;;;11.40;;
1715;SDS011;855;48.824;9.220;2024-03-02T07:45:59;26.43;;;10.20;;
1715;SDS011;855;48.824;9.220;2024-03-02T07:48:26;28.80;;;10.37;;
1715;SDS011;855;48.824;9.220;2024-03-02T07:50:53;25.00;;;8.63;;
1715;SDS011;855;48.824;9.220;2024-03-02T07:53:19;19.37;;;8.27;;
1715;SDS011;855;48.824;9.220;2024-03-02T07:55:46;27.43;;;9.63;;
1715;SDS011;855;48.824;9.220;2024-03-02T07:58:13;24.60;;;8.13;;
1715;SDS011;855;48.824;9.220;2024-03-02T08:00:40;20.87;;;8.20;;
1715;SDS011;855;48.824;9.220;2024-03-02T08:03:11;12.10;;;6.70;;
1715;SDS011;855;48.824;9.220;2024-03-02T08:05:38;21.07;;;7.47;;
1715;SDS011;855;48.824;9.220;2024-03-02T08:08:05;19.10;;;8.80;;
1715;SDS011;855;48.824;9.220;2024-03-02T08:10:32;12.40;;;6.10;;
1715;SDS011;855;48.824;9.220;2024-03-02T08:12:59;16.27;;;7.00;;
1715;SDS011;855;48.824;9.220;2024-03-02T08:15:26;15.40;;;6.80;;
1715;SDS011;855;48.824;9.220;2024-03-02T08:17:52;14.33;;;5.90;;
1715;SDS011;855;48.824;9.220;2024-03-02T08:20:21;10.90;;;6.37;;
1715;SDS011;855;48.824;9.220;2024-03-02T08:22:47;12.87;;;5.40;;
1715;SDS011;855;48.824;9.220;2024-03-02T08:25:14;16.97;;;7.37;;
1715;SDS011;855;48.824;9.220;2024-03-02T08:27:41;14.60;;;5.73;;
1715;SDS011;855;48.824;9.220;2024-03-02T08:30:09;14.80;;;6.93;;
1715;SDS011;855;48.824;9.220;2024-03-02T08:32:37;21.87;;;6.67;;
1715;SDS011;855;48.824;9.220;2024-03-02T08:35:06;17.13;;;6.97;;
1715;SDS011;855;48.824;9.220;2024-03-02T08:37:34;16.37;;;7.07;;
1715;SDS011;855;48.824;9.220;2024-03-02T08:40:03;22.33;;;7.17;;
1715;SDS011;855;48.824;9.220;2024-03-02T08:42:32;14.90;;;7.07;;
1715;SDS011;855;48.824;9.220;2024-03-02T08:44:59;17.70;;;6.40;;
1715;SDS011;855;48.824;9.220;2024-03-02T08:47:27;14.03;;;6.20;;
1715;SDS011;855;48.824;9.220;2024-03-02T08:49:53;19.83;;;6.63;;
1715;SDS011;855;48.824;9.220;2024-03-02T08:52:20;16.53;;;7.00;;
1715;SDS011;855;48.824;9.220;2024-03-02T08:54:48;16.87;;;6.30;;
1715;SDS011;855;48.824;9.220;2024-03-02T08:57:15;11.30;;;5.90;;
1715;SDS011;855;48.824;9.220;2024-03-02T08:59:42;14.53;;;5.90;;
1715;SDS011;855;48.824;9.220;2024-03-02T09:02:09;13.80;;;5.73;;
1715;SDS011;855;48.824;9.220;2024-03-02T09:04:36;14.93;;;7.07;;
1715;SDS011;855;48.824;9.220;2024-03-02T09:07:03;14.00;;;5.97;;
1715;SDS011;855;48.824;9.220;2024-03-02T09:09:30;15.27;;;6.57;;
1715;SDS011;855;48.824;9.220;2024-03-02T09:11:59;15.00;;;6.40;;
1715;SDS011;855;48.824;9.220;2024-03-02T09:14:26;15.27;;;5.90;;
1715;SDS011;855;48.824;9.220;2024-03-02T09:16:53;9.53;;;5.53;;
1715;SDS011;855;48.824;9.220;2024-03-02T09:19:20;12.93;;;5.20;;
1715;SDS011;855;48.824;9.220;2024-03-02T09:21:46;10.40;;;5.30;;
1715;SDS011;855;48.824;9.220;2024-03-02T09:24:13;7.30;;;4.83;;
1715;SDS011;855;48.824;9.220;2024-03-02T09:26:40;13.70;;;5.87;;
1715;SDS011;855;48.824;9.220;2024-03-02T09:29:08;12.40;;;5.90;;
1715;SDS011;855;48.824;9.220;2024-03-02T09:31:38;7.43;;;4.40;;
1715;SDS011;855;48.824;9.220;2024-03-02T09:34:06;8.00;;;3.70;;
1715;SDS011;855;48.824;9.220;2024-03-02T09:36:33;8.57;;;4.80;;
1715;SDS011;855;48.824;9.220;2024-03-02T09:39:00;6.80;;;3.40;;
1715;SDS011;855;48.824;9.220;2024-03-02T09:41:28;7.27;;;3.40;;
1715;SDS011;855;48.824;9.220;2024-03-02T09:43:55;12.93;;;5.10;;
1715;SDS011;855;48.824;9.220;2024-03-02T09:46:24;6.90;;;3.80;;
1715;SDS011;855;48.824;9.220;2024-03-02T09:48:51;11.53;;;3.33;;
1715;SDS011;855;48.824;9.220;2024-03-02T09:51:18;9.43;;;4.03;;
1715;SDS011;855;48.824;9.220;2024-03-02T09:53:46;6.73;;;4.10;;
1715;SDS011;855;48.824;9.220;2024-03-02T09:56:13;6.40;;;3.83;;
1715;SDS011;855;48.824;9.220;2024-03-02T09:58:41;7.60;;;4.03;;
1715;SDS011;855;48.824;9.220;2024-03-02T10:01:09;11.70;;;4.50;;
1715;SDS011;855;48.824;9.220;2024-03-02T10:03:37;5.20;;;3.03;;
1715;SDS011;855;48.824;9.220;2024-03-02T10:06:20;9.37;;;3.57;;
1715;SDS011;855;48.824;9.220;2024-03-02T10:08:48;6.57;;;3.83;;
1715;SDS011;855;48.824;9.220;2024-03-02T10:11:27;8.13;;;3.57;;
1715;SDS011;855;48.824;9.220;2024-03-02T10:14:05;5.37;;;3.10;;
1715;SDS011;855;48.824;9.220;2024-03-02T10:16:34;7.43;;;3.47;;
1715;SDS011;855;48.824;9.220;2024-03-02T10:19:19;9.37;;;3.53;;
1715;SDS011;855;48.824;9.220;2024-03-02T10:21:47;7.33;;;3.40;;
1715;SDS011;855;48.824;9.220;2024-03-02T10:24:14;4.73;;;2.80;;
1715;SDS011;855;48.824;9.220;2024-03-02T10:26:41;4.67;;;3.00;;
1715;SDS011;855;48.824;9.220;2024-03-02T10:29:09;10.27;;;3.87;;
1715;SDS011;855;48.824;9.220;2024-03-02T10:31:36;4.77;;;2.70;;
1715;SDS011;855;48.824;9.220;2024-03-02T10:34:04;5.77;;;3.80;;
1715;SDS011;855;48.824;9.220;2024-03-02T10:36:32;5.60;;;3.27;;
1715;SDS011;855;48.824;9.220;2024-03-02T10:39:01;8.37;;;3.80;;
1715;SDS011;855;48.824;9.220;2024-03-02T10:41:30;6.70;;;3.10;;
1715;SDS011;855;48.824;9.220;2024-03-02T10:43:59;5.13;;;2.80;;
1715;SDS011;855;48.824;9.220;2024-03-02T10:46:29;5.70;;;3.07;;
1715;SDS011;855;48.824;9.220;2024-03-02T10:48:57;9.97;;;3.60;;
1715;SDS011;855;48.824;9.220;2024-03-02T10:51:24;6.90;;;3.87;;
1715;SDS011;855;48.824;9.220;2024-03-02T10:53:54;8.87;;;3.53;;
1715;SDS011;855;48.824;9.220;2024-03-02T10:56:21;3.70;;;3.17;;
1715;SDS011;855;48.824;9.220;2024-03-02T10:58:54;11.97;;;4.57;;
1715;SDS011;855;48.824;9.220;2024-03-02T11:01:28;13.77;;;5.93;;
1715;SDS011;855;48.824;9.220;2024-03-02T11:03:56;12.10;;;5.43;;
1715;SDS011;855;48.824;9.220;2024-03-02T11:06:24;15.10;;;6.43;;
1715;SDS011;855;48.824;9.220;2024-03-02T11:08:55;6.90;;;3.10;;
1715;SDS011;855;48.824;9.220;2024-03-02T11:11:29;5.00;;;2.80;;
1715;SDS011;855;48.824;9.220;2024-03-02T11:14:00;5.47;;;3.37;;
1715;SDS011;855;48.824;9.220;2024-03-02T11:16:33;5.53;;;3.00;;
1715;SDS011;855;48.824;9.220;2024-03-02T11:19:02;8.20;;;2.50;;
1715;SDS011;855;48.824;9.220;2024-03-02T11:21:31;2.87;;;1.90;;
1715;SDS011;855;48.824;9.220;2024-03-02T11:24:00;2.53;;;1.90;;
1715;SDS011;855;48.824;9.220;2024-03-02T11:26:28;1.63;;;1.40;;
1715;SDS011;855;48.824;9.220;2024-03-02T11:28:54;4.60;;;1.83;;
1715;SDS011;855;48.824;9.220;2024-03-02T11:31:28;3.80;;;2.23;;
1715;SDS011;855;48.824;9.220;2024-03-02T11:34:28;3.90;;;2.40;;
1715;SDS011;855;48.824;9.220;2024-03-02T11:36:56;1.90;;;1.60;;
1715;SDS011;855;48.824;9.220;2024-03-02T11:39:25;3.23;;;2.03;;
1715;SDS011;855;48.824;9.220;2024-03-02T11:41:52;3.27;;;1.53;;
1715;SDS011;855;48.824;9.220;2024-03-02T11:44:19;7.50;;;2.60;;
1715;SDS011;855;48.824;9.220;2024-03-02T11:46:46;4.40;;;2.20;;
1715;SDS011;855;48.824;9.220;2024-03-02T11:49:20;2.33;;;1.60;;
1715;SDS011;855;48.824;9.220;2024-03-02T11:52:03;4.27;;;1.80;;
1715;SDS011;855;48.824;9.220;2024-03-02T11:54:33;4.17;;;2.07;;
1715;SDS011;855;48.824;9.220;2024-03-02T11:57:01;3.17;;;1.87;;
1715;SDS011;855;48.824;9.220;2024-03-02T11:59:28;2.90;;;2.07;;
1715;SDS011;855;48.824;9.220;2024-03-02T12:01:55;1.10;;;0.97;;
1715;SDS011;855;48.824;9.220;2024-03-02T12:04:23;1.30;;;1.27;;
1715;SDS011;855;48.824;9.220;2024-03-02T12:06:53;2.77;;;1.50;;
1715;SDS011;855;48.824;9.220;2024-03-02T12:09:21;2.30;;;1.57;;
1715;SDS011;855;48.824;9.220;2024-03-02T12:11:49;1.67;;;1.50;;
1715;SDS011;855;48.824;9.220;2024-03-02T12:14:28;1.33;;;1.03;;
1715;SDS011;855;48.824;9.220;2024-03-02T12:16:55;2.07;;;0.90;;
1715;SDS011;855;48.824;9.220;2024-03-02T12:19:23;5.93;;;1.40;;
1715;SDS011;855;48.824;9.220;2024-03-02T12:21:50;5.53;;;2.50;;
1715;SDS011;855;48.824;9.220;2024-03-02T12:24:17;3.60;;;1.63;;
1715;SDS011;855;48.824;9.220;2024-03-02T12:26:44;0.73;;;0.63;;
1715;SDS011;855;48.824;9.220;2024-03-02T12:29:13;0.87;;;0.63;;
1715;SDS011;855;48.824;9.220;2024-03-02T12:31:41;2.33;;;0.70;;
1715;SDS011;855;48.824;9.220;2024-03-02T12:34:10;0.60;;;0.60;;
1715;SDS011;855;48.824;9.220;2024-03-02T12:36:39;0.60;;;0.57;;
1715;SDS011;855;48.824;9.220;2024-03-02T12:39:06;2.00;;;1.00;;
1715;SDS011;855;48.824;9.220;2024-03-02T12:41:35;1.00;;;0.67;;
1715;SDS011;855;48.824;9.220;2024-03-02T12:44:03;0.50;;;0.50;;
1715;SDS011;855;48.824;9.220;2024-03-02T12:46:32;0.70;;;0.53;;
1715;SDS011;855;48.824;9.220;2024-03-02T12:49:04;2.10;;;0.80;;
1715;SDS011;855;48.824;9.220;2024-03-02T12:51:34;1.27;;;0.80;;
1715;SDS011;855;48.824;9.220;2024-03-02T12:54:01;2.70;;;0.73;;
1715;SDS011;855;48.824;9.220;2024-03-02T12:56:30;0.70;;;0.60;;
1715;SDS011;855;48.824;9.220;2024-03-02T12:58:57;2.67;;;1.00;;
1715;SDS011;855;48.824;9.220;2024-03-02T13:01:25;0.60;;;0.60;;
1715;SDS011;855;48.824;9.220;2024-03-02T13:03:53;0.70;;;0.70;;
1715;SDS011;855;48.824;9.220;2024-03-02T13:06:22;1.60;;;0.53;;
1715;SDS011;855;48.824;9.220;2024-03-02T13:08:49;0.50;;;0.50;;
1715;SDS011;855;48.824;9.220;2024-03-02T13:11:16;2.40;;;0.93;;
1715;SDS011;855;48.824;9.220;2024-03-02T13:13:43;1.00;;;0.60;;
1715;SDS011;855;48.824;9.220;2024-03-02T13:16:10;0.67;;;0.60;;
1715;SDS011;855;48.824;9.220;2024-03-02T13:18:38;4.20;;;0.60;;
1715;SDS011;855;48.824;9.220;2024-03-02T13:21:07;1.53;;;1.03;;
1715;SDS011;855;48.824;9.220;2024-03-02T13:23:33;1.00;;;0.70;;
1715;SDS011;855;48.824;9.220;2024-03-02T13:26:00;1.70;;;0.80;;
1715;SDS011;855;48.824;9.220;2024-03-02T13:28:28;1.90;;;0.73;;
1715;SDS011;855;48.824;9.220;2024-03-02T13:30:54;0.50;;;0.50;;
1715;SDS011;855;48.824;9.220;2024-03-02T13:33:21;2.20;;;0.70;;
1715;SDS011;855;48.824;9.220;2024-03-02T13:35:48;1.07;;;0.73;;
1715;SDS011;855;48.824;9.220;2024-03-02T13:38:17;0.80;;;0.70;;
1715;SDS011;855;48.824;9.220;2024-03-02T13:40:45;0.70;;;0.40;;
1715;SDS011;855;48.824;9.220;2024-03-02T13:43:12;0.60;;;0.50;;
1715;SDS011;855;48.824;9.220;2024-03-02T13:45:40;0.70;;;0.60;;
1715;SDS011;855;48.824;9.220;2024-03-02T13:48:07;1.40;;;0.93;;
1715;SDS011;855;48.824;9.220;2024-03-02T13:50:34;1.23;;;0.60;;
1715;SDS011;855;48.824;9.220;2024-03-02T13:53:01;0.70;;;0.60;;
1715;SDS011;855;48.824;9.220;2024-03-02T13:55:29;1.57;;;0.80;;
1715;SDS011;855;48.824;9.220;2024-03-02T13:57:56;1.53;;;0.80;;
1715;SDS011;855;48.824;9.220;2024-03-02T14:00:23;1.57;;;0.80;;
1715;SDS011;855;48.824;9.220;2024-03-02T14:02:50;2.80;;;1.07;;
1715;SDS011;855;48.824;9.220;2024-03-02T14:05:17;1.90;;;0.80;;
1715;SDS011;855;48.824;9.220;2024-03-02T14:07:44;3.03;;;0.83;;
1715;SDS011;855;48.824;9.220;2024-03-02T14:10:11;2.10;;;0.80;;
1715;SDS011;855;48.824;9.220;2024-03-02T14:12:40;1.73;;;0.80;;
1715;SDS011;855;48.824;9.220;2024-03-02T14:15:07;1.53;;;0.93;;
1715;SDS011;855;48.824;9.220;2024-03-02T14:17:34;1.47;;;0.87;;
1715;SDS011;855;48.824;9.220;2024-03-02T14:20:01;0.77;;;0.70;;
1715;SDS011;855;48.824;9.220;2024-03-02T14:22:30;1.80;;;0.93;;
1715;SDS011;855;48.824;9.220;2024-03-02T14:24:56;0.80;;;0.80;;
1715;SDS011;855;48.824;9.220;2024-03-02T14:27:23;1.33;;;0.80;;
1715;SDS011;855;48.824;9.220;2024-03-02T14:29:51;0.83;;;0.83;;
1715;SDS011;855;48.824;9.220;2024-03-02T14:32:18;1.37;;;1.03;;
1715;SDS011;855;48.824;9.220;2024-03-02T14:34:45;1.60;;;1.50;;
1715;SDS011;855;48.824;9.220;2024-03-02T14:37:12;2.47;;;1.20;;
1715;SDS011;855;48.824;9.220;2024-03-02T14:39:39;3.33;;;1.33;;
1715;SDS011;855;48.824;9.220;2024-03-02T14:42:06;1.53;;;0.87;;
1715;SDS011;855;48.824;9.220;2024-03-02T14:44:33;1.80;;;1.20;;
1715;SDS011;855;48.824;9.220;2024-03-02T14:47:02;3.23;;;0.93;;
1715;SDS011;855;48.824;9.220;2024-03-02T14:49:29;0.90;;;0.80;;
1715;SDS011;855;48.824;9.220;2024-03-02T14:51:56;2.93;;;1.10;;
1715;SDS011;855;48.824;9.220;2024-03-02T14:54:23;1.27;;;0.70;;
1715;SDS011;855;48.824;9.220;2024-03-02T14:56:50;2.17;;;1.07;;
1715;SDS011;855;48.824;9.220;2024-03-02T14:59:17;0.80;;;0.60;;
1715;SDS011;855;48.824;9.220;2024-03-02T15:01:44;3.83;;;0.83;;
1715;SDS011;855;48.824;9.220;2024-03-02T15:04:13;3.23;;;0.80;;
1715;SDS011;855;48.824;9.220;2024-03-02T15:06:41;1.53;;;0.80;;
1715;SDS011;855;48.824;9.220;2024-03-02T15:09:08;4.10;;;1.07;;
1715;SDS011;855;48.824;9.220;2024-03-02T15:11:35;0.70;;;0.60;;
1715;SDS011;855;48.824;9.220;2024-03-02T15:14:02;1.73;;;0.80;;
1715;SDS011;855;48.824;9.220;2024-03-02T15:16:29;1.60;;;0.90;;
1715;SDS011;855;48.824;9.220;2024-03-02T15:18:56;1.50;;;1.37;;
1715;SDS011;855;48.824;9.220;2024-03-02T15:21:24;3.23;;;1.40;;
1715;SDS011;855;48.824;9.220;2024-03-02T15:23:50;2.60;;;1.50;;
1715;SDS011;855;48.824;9.220;2024-03-02T15:26:17;3.43;;;1.40;;